Time;durP1;ratioP1;P1;durP2;ratioP2;P2;SDS_P1;SDS_P2;PMS_P1;PMS_P2;Temp;Humidity;BMP_temperature;BMP_pressure;BME280_temperature;BME280_humidity;BME280_pressure;Samples;Min_cycle;Max_cycle;Signal;HPM_P1;HPM_P2
2022/07/26 00:00:55;;;;;;;52.55;10.38;;;18.10;99.90;;;;;;4912392;29;20056;-75
2022/07/26 00:03:22;;;;;;;16.98;6.60;;;18.10;99.90;;;;;;4911417;29;20063;-75
2022/07/26 00:05:50;;;;;;;40.05;8.35;;;18.00;99.90;;;;;;4912092;29;20063;-75
2022/07/26 00:08:17;;;;;;;42.75;9.93;;;18.00;99.90;;;;;;4895449;29;20044;-75
2022/07/26 00:10:48;;;;;;;81.07;13.95;;;18.00;99.90;;;;;;4912657;29;20139;-75
2022/07/26 00:13:16;;;;;;;65.72;13.13;;;18.00;99.90;;;;;;4914899;29;20055;-75
2022/07/26 00:15:45;;;;;;;64.43;14.05;;;17.90;99.90;;;;;;4915937;29;20052;-74
2022/07/26 00:18:12;;;;;;;68.65;14.65;;;17.90;99.90;;;;;;4915835;29;20048;-74
2022/07/26 00:20:40;;;;;;;83.25;13.80;;;17.90;99.90;;;;;;4898985;29;20066;-74
2022/07/26 00:23:08;;;;;;;73.25;12.98;;;17.80;99.90;;;;;;4898858;29;20044;-74
2022/07/26 00:25:35;;;;;;;60.13;12.15;;;17.80;99.90;;;;;;4915794;29;20056;-74
2022/07/26 00:28:04;;;;;;;63.72;13.23;;;17.80;99.90;;;;;;4898797;29;20091;-74
2022/07/26 00:30:32;;;;;;;63.47;12.52;;;17.80;99.90;;;;;;4915741;29;20115;-74
2022/07/26 00:33:00;;;;;;;66.75;12.30;;;17.80;99.90;;;;;;4898625;29;20052;-74
2022/07/26 00:35:27;;;;;;;60.58;12.82;;;17.70;99.90;;;;;;4914109;29;20056;-74
2022/07/26 00:37:55;;;;;;;69.72;12.50;;;17.70;99.90;;;;;;4915338;29;20052;-74
2022/07/26 00:40:22;;;;;;;73.22;12.90;;;17.70;99.90;;;;;;4915759;29;20484;-73
2022/07/26 00:42:49;;;;;;;62.22;10.85;;;17.70;99.90;;;;;;4898673;29;20056;-74
2022/07/26 00:45:18;;;;;;;61.17;12.35;;;17.60;99.90;;;;;;4898543;29;20384;-75
2022/07/26 00:47:46;;;;;;;67.22;12.38;;;17.60;99.90;;;;;;4898202;29;20062;-74
2022/07/26 00:50:16;;;;;;;68.88;12.88;;;17.60;99.90;;;;;;4898507;29;20074;-74
2022/07/26 00:52:44;;;;;;;69.03;13.43;;;17.50;99.90;;;;;;4915475;29;20118;-74
2022/07/26 00:55:12;;;;;;;80.47;13.48;;;17.50;99.90;;;;;;4915652;29;20222;-74
2022/07/26 00:57:41;;;;;;;67.45;12.32;;;17.50;99.90;;;;;;4915444;29;20064;-74
2022/07/26 01:00:11;;;;;;;66.18;13.07;;;17.40;99.90;;;;;;4915358;29;20131;-74
2022/07/26 01:02:41;;;;;;;73.43;13.75;;;17.40;99.90;;;;;;4915761;29;20052;-74
2022/07/26 01:05:09;;;;;;;55.72;11.63;;;17.40;99.90;;;;;;4915201;29;20175;-74
2022/07/26 01:07:38;;;;;;;45.25;10.15;;;17.40;99.90;;;;;;4897858;29;20101;-75
2022/07/26 01:10:10;;;;;;;47.45;11.00;;;17.40;99.90;;;;;;4913867;29;20075;-75
2022/07/26 01:12:38;;;;;;;32.35;9.43;;;17.30;99.90;;;;;;4915015;29;20588;-74
2022/07/26 01:15:06;;;;;;;46.03;10.35;;;17.40;99.90;;;;;;4915205;29;20059;-75
2022/07/26 01:17:34;;;;;;;25.85;10.27;;;17.40;99.90;;;;;;4897872;29;20104;-74
2022/07/26 01:20:03;;;;;;;25.75;9.15;;;17.30;99.90;;;;;;4914882;29;20572;-75
2022/07/26 01:22:32;;;;;;;27.98;9.25;;;17.30;99.90;;;;;;4913871;29;20375;-74
2022/07/26 01:25:00;;;;;;;41.53;9.15;;;17.30;99.90;;;;;;4913264;29;20059;-75
2022/07/26 01:27:27;;;;;;;38.88;9.98;;;17.30;99.90;;;;;;4915271;29;20056;-74
2022/07/26 01:29:55;;;;;;;32.42;9.50;;;17.30;99.90;;;;;;4881861;29;20147;-74
2022/07/26 01:32:22;;;;;;;44.60;11.48;;;17.30;99.90;;;;;;4913700;29;20471;-74
2022/07/26 01:34:49;;;;;;;41.42;11.75;;;17.20;99.90;;;;;;4897450;29;20054;-74
2022/07/26 01:37:17;;;;;;;61.33;11.07;;;17.20;99.90;;;;;;4914563;29;20066;-74
2022/07/26 01:39:46;;;;;;;59.72;12.93;;;17.20;99.90;;;;;;4897664;29;20066;-75
2022/07/26 01:42:13;;;;;;;62.65;11.25;;;17.20;99.90;;;;;;4912944;29;20098;-74
2022/07/26 01:44:41;;;;;;;59.10;12.38;;;17.20;99.90;;;;;;4896718;29;20064;-74
2022/07/26 01:47:08;;;;;;;55.78;12.23;;;17.10;99.90;;;;;;4912760;29;20051;-74
2022/07/26 01:49:35;;;;;;;56.00;12.05;;;17.10;99.90;;;;;;4914653;29;20111;-74
2022/07/26 01:52:03;;;;;;;79.03;13.50;;;17.10;99.90;;;;;;4914340;29;20056;-74
2022/07/26 01:54:30;;;;;;;66.95;13.13;;;17.10;99.90;;;;;;4914335;29;20107;-74
2022/07/26 01:56:59;;;;;;;85.47;13.48;;;17.10;99.90;;;;;;4913980;29;20083;-73
2022/07/26 01:59:27;;;;;;;60.78;10.85;;;17.10;99.90;;;;;;4914344;29;20147;-74
2022/07/26 02:01:54;;;;;;;64.30;12.88;;;17.00;99.90;;;;;;4896821;29;20043;-73
2022/07/26 02:07:06;;;;;;;50.42;10.52;;;17.00;99.90;;;;;;4897141;29;20406;-74
2022/07/26 02:09:33;;;;;;;52.50;10.40;;;16.90;99.90;;;;;;4914486;29;20051;-74
2022/07/26 02:12:03;;;;;;;50.78;10.02;;;16.90;99.90;;;;;;4912580;29;20083;-73
2022/07/26 02:14:31;;;;;;;50.67;10.05;;;16.90;99.90;;;;;;4896481;29;20058;-74
2022/07/26 02:16:59;;;;;;;48.60;10.77;;;16.90;99.90;;;;;;4896495;29;20154;-74
2022/07/26 02:19:27;;;;;;;35.22;8.43;;;16.90;99.90;;;;;;4914025;29;20448;-74
2022/07/26 02:21:55;;;;;;;38.22;8.55;;;16.90;99.90;;;;;;4896375;29;20060;-74
2022/07/26 02:24:23;;;;;;;46.13;8.90;;;16.80;99.90;;;;;;4913967;29;20048;-73
2022/07/26 02:26:50;;;;;;;34.13;7.93;;;16.80;99.90;;;;;;4913619;29;20437;-74
2022/07/26 02:29:19;;;;;;;43.75;8.75;;;16.80;99.90;;;;;;4912276;29;20052;-74
2022/07/26 02:31:48;;;;;;;25.48;8.23;;;16.80;99.90;;;;;;4896392;29;20106;-74
2022/07/26 02:34:15;;;;;;;34.70;7.63;;;16.80;99.90;;;;;;4913958;29;20082;-74
2022/07/26 02:36:42;;;;;;;24.70;7.63;;;16.80;99.90;;;;;;4911562;29;20079;-74
2022/07/26 02:39:11;;;;;;;26.33;7.60;;;16.80;99.90;;;;;;4911915;29;20052;-74
2022/07/26 02:41:38;;;;;;;31.83;9.48;;;16.70;99.90;;;;;;4913204;29;20070;-74
2022/07/26 02:44:06;;;;;;;19.52;8.75;;;16.80;99.90;;;;;;4913786;29;20048;-73
2022/07/26 02:46:36;;;;;;;26.27;7.35;;;16.80;99.90;;;;;;4913136;29;20056;-73
2022/07/26 02:49:03;;;;;;;26.70;6.88;;;16.80;99.90;;;;;;4895974;29;20059;-74
2022/07/26 02:51:31;;;;;;;17.30;8.35;;;16.80;99.90;;;;;;4913507;29;20048;-74
2022/07/26 02:53:58;;;;;;;13.15;8.10;;;16.80;99.90;;;;;;4895659;29;20055;-74
2022/07/26 02:56:25;;;;;;;27.02;7.40;;;16.90;99.90;;;;;;4913217;29;20079;-73
2022/07/26 02:58:53;;;;;;;19.08;7.15;;;16.90;99.90;;;;;;4913146;29;20465;-73
2022/07/26 03:01:20;;;;;;;13.77;7.80;;;17.00;99.90;;;;;;4912995;29;20142;-73
2022/07/26 03:03:49;;;;;;;20.45;7.82;;;17.00;99.90;;;;;;4912610;29;20465;-73
2022/07/26 03:06:17;;;;;;;21.08;7.72;;;17.00;99.90;;;;;;4912639;29;20240;-74
2022/07/26 03:08:44;;;;;;;12.85;8.18;;;17.00;99.90;;;;;;4913262;29;20052;-73
2022/07/26 03:11:12;;;;;;;15.27;8.23;;;17.10;99.90;;;;;;4912498;29;20071;-74
2022/07/26 03:13:39;;;;;;;14.30;8.38;;;17.10;99.90;;;;;;4912783;29;20048;-75
2022/07/26 03:16:07;;;;;;;17.23;8.45;;;17.10;99.90;;;;;;4895545;29;20076;-74
2022/07/26 03:18:35;;;;;;;16.52;9.95;;;17.20;99.90;;;;;;4912320;29;20067;-74
2022/07/26 03:21:04;;;;;;;12.27;9.45;;;17.30;99.90;;;;;;4911128;29;20062;-74
2022/07/26 03:23:33;;;;;;;17.60;10.75;;;17.30;99.90;;;;;;4912831;29;20056;-74
2022/07/26 03:26:01;;;;;;;15.77;9.70;;;17.40;99.90;;;;;;4912882;29;20062;-74
2022/07/26 03:28:31;;;;;;;15.60;9.30;;;17.50;99.90;;;;;;4895306;29;20414;-74
2022/07/26 03:30:58;;;;;;;13.20;8.77;;;17.50;99.90;;;;;;4895851;29;20056;-74
2022/07/26 03:33:26;;;;;;;16.55;9.82;;;17.60;99.90;;;;;;4912761;29;20044;-74
2022/07/26 03:35:53;;;;;;;15.15;10.88;;;17.60;99.90;;;;;;4912528;29;20052;-74
2022/07/26 03:38:22;;;;;;;15.38;10.60;;;17.70;99.90;;;;;;4913085;29;20063;-75
2022/07/26 03:40:50;;;;;;;14.00;10.07;;;17.70;99.90;;;;;;4895318;29;20048;-75
2022/07/26 03:43:18;;;;;;;13.50;10.77;;;17.80;99.90;;;;;;4912394;29;20060;-75
2022/07/26 03:45:46;;;;;;;13.15;9.52;;;17.90;99.90;;;;;;4895141;29;20052;-75
2022/07/26 03:48:13;;;;;;;16.10;9.77;;;17.90;99.90;;;;;;4913582;29;20513;-75
2022/07/26 03:50:41;;;;;;;18.55;9.50;;;18.00;99.90;;;;;;4898986;29;20095;-75
2022/07/26 03:53:09;;;;;;;15.75;9.02;;;18.00;99.90;;;;;;4916551;29;20044;-74
2022/07/26 03:58:23;;;;;;;12.50;9.13;;;18.20;99.90;;;;;;4916749;29;20087;-74
2022/07/26 04:00:50;;;;;;;13.57;8.77;;;18.20;99.90;;;;;;4916510;29;20524;-74
2022/07/26 04:03:18;;;;;;;12.70;8.43;;;18.20;99.90;;;;;;4899693;29;20058;-74
2022/07/26 04:05:45;;;;;;;11.45;7.90;;;18.30;99.90;;;;;;4916594;29;20131;-74
2022/07/26 04:08:12;;;;;;;12.75;8.82;;;18.40;99.90;;;;;;4916437;29;20063;-74
2022/07/26 04:10:45;;;;;;;12.82;7.25;;;18.50;99.90;;;;;;4898975;29;20055;-74
2022/07/26 04:13:13;;;;;;;14.15;8.30;;;18.50;99.90;;;;;;4915703;29;20477;-74
2022/07/26 04:15:40;;;;;;;14.75;8.32;;;18.60;99.90;;;;;;4916017;29;20063;-74
2022/07/26 04:18:08;;;;;;;14.25;8.80;;;18.70;99.90;;;;;;4898868;29;20230;-74
2022/07/26 04:20:35;;;;;;;13.85;7.40;;;18.70;99.90;;;;;;4899198;29;20516;-74
2022/07/26 04:23:02;;;;;;;12.82;8.05;;;18.80;99.90;;;;;;4915560;29;20060;-74
2022/07/26 04:25:30;;;;;;;17.90;8.45;;;18.80;99.90;;;;;;4915952;29;20052;-74
2022/07/26 04:27:59;;;;;;;13.57;8.70;;;18.90;99.90;;;;;;4915798;29;20048;-74
2022/07/26 04:30:26;;;;;;;16.25;8.93;;;19.00;99.90;;;;;;4897830;29;20079;-74
2022/07/26 04:32:54;;;;;;;12.57;8.27;;;19.00;99.90;;;;;;4915915;29;20080;-74
2022/07/26 04:35:22;;;;;;;17.38;8.93;;;19.20;99.90;;;;;;4914337;29;20163;-75
2022/07/26 04:37:49;;;;;;;21.17;9.05;;;19.20;99.90;;;;;;4915089;29;20066;-74
2022/07/26 04:40:18;;;;;;;18.83;9.27;;;19.30;99.90;;;;;;4915615;29;20055;-74
2022/07/26 04:42:46;;;;;;;16.27;9.00;;;19.30;99.90;;;;;;4915407;29;20201;-75
2022/07/26 04:45:15;;;;;;;12.88;7.90;;;19.40;99.90;;;;;;4898229;29;20146;-74
2022/07/26 04:47:42;;;;;;;17.23;8.90;;;19.50;99.90;;;;;;4915483;29;20060;-74
2022/07/26 04:50:11;;;;;;;14.73;8.32;;;19.50;99.90;;;;;;4915550;29;20057;-74
2022/07/26 04:52:39;;;;;;;15.05;8.10;;;19.60;99.90;;;;;;4915448;29;20509;-74
2022/07/26 04:55:07;;;;;;;18.17;8.23;;;19.70;99.90;;;;;;4914970;29;20067;-74
2022/07/26 04:57:35;;;;;;;14.38;8.13;;;19.70;99.90;;;;;;4914346;29;20509;-74
2022/07/26 05:00:04;;;;;;;16.02;8.32;;;19.80;99.90;;;;;;4914742;29;20167;-74
2022/07/26 05:02:33;;;;;;;14.27;7.57;;;19.90;99.90;;;;;;4898192;29;20458;-75
2022/07/26 05:05:00;;;;;;;15.60;6.30;;;19.90;99.90;;;;;;4914908;29;20044;-75
2022/07/26 05:07:28;;;;;;;14.25;6.85;;;19.90;99.90;;;;;;4914832;29;20048;-75
2022/07/26 05:09:55;;;;;;;30.35;7.70;;;19.90;99.90;;;;;;4897673;29;20048;-75
2022/07/26 05:12:22;;;;;;;9.63;5.85;;;20.00;99.90;;;;;;4915288;29;20119;-75
2022/07/26 05:14:50;;;;;;;13.55;7.07;;;20.10;99.90;;;;;;4914690;29;20070;-75
2022/07/26 05:17:17;;;;;;;13.18;6.53;;;20.20;99.90;;;;;;4913997;29;20159;-77
2022/07/26 05:19:46;;;;;;;20.38;7.45;;;20.30;99.90;;;;;;4897632;29;20052;-74
2022/07/26 05:22:13;;;;;;;14.13;6.60;;;20.50;99.90;;;;;;4914904;29;20087;-74
2022/07/26 05:24:40;;;;;;;15.32;7.25;;;20.60;99.90;;;;;;4914581;29;20146;-74
2022/07/26 05:27:08;;;;;;;9.70;6.13;;;20.80;99.90;;;;;;4914550;29;20071;-75
2022/07/26 05:29:35;;;;;;;14.02;6.13;;;21.00;99.90;;;;;;4914420;29;20056;-74
2022/07/26 05:32:03;;;;;;;13.88;5.20;;;21.10;99.90;;;;;;4897977;29;20052;-74
2022/07/26 05:34:30;;;;;;;15.57;6.22;;;21.30;99.90;;;;;;4914366;29;20147;-74
2022/07/26 05:36:59;;;;;;;14.07;5.68;;;21.50;99.90;;;;;;4914633;29;20056;-74
2022/07/26 05:39:27;;;;;;;16.58;6.03;;;21.80;99.90;;;;;;4913902;29;20161;-75
2022/07/26 05:41:54;;;;;;;12.55;6.65;;;22.40;99.90;;;;;;4914095;29;20095;-74
2022/07/26 05:44:23;;;;;;;17.88;8.02;;;23.00;99.90;;;;;;4913108;29;20163;-74
2022/07/26 05:46:50;;;;;;;11.50;5.30;;;23.50;99.90;;;;;;4914166;29;20280;-74
2022/07/26 05:49:18;;;;;;;9.35;4.88;;;24.00;99.90;;;;;;4914135;29;20076;-74
2022/07/26 05:51:45;;;;;;;7.82;4.25;;;24.60;99.90;;;;;;4914167;29;20512;-74
2022/07/26 05:54:14;;;;;;;9.73;4.78;;;25.10;99.90;;;;;;4914834;29;20048;-74
2022/07/26 05:56:41;;;;;;;9.20;4.25;;;25.50;99.90;;;;;;4914235;29;20052;-74
2022/07/26 05:59:08;;;;;;;4.95;3.05;;;26.00;99.90;;;;;;4913606;29;20154;-74
2022/07/26 06:01:36;;;;;;;7.75;2.88;;;26.60;99.90;;;;;;4913779;29;20143;-74
2022/07/26 06:04:03;;;;;;;4.43;2.55;;;27.00;99.90;;;;;;4896499;29;20071;-75
2022/07/26 06:06:31;;;;;;;3.65;1.90;;;27.50;93.50;;;;;;4896943;29;20059;-75
2022/07/26 06:08:58;;;;;;;7.78;2.08;;;28.00;82.60;;;;;;4912205;29;20062;-75
2022/07/26 06:11:27;;;;;;;6.90;1.70;;;28.30;76.80;;;;;;4895737;29;20063;-74
2022/07/26 06:13:54;;;;;;;5.28;2.10;;;28.50;74.80;;;;;;4912943;29;20103;-74
2022/07/26 06:16:22;;;;;;;4.47;2.10;;;28.60;73.80;;;;;;4895555;29;20060;-74
2022/07/26 06:18:49;;;;;;;4.00;1.70;;;28.40;73.70;;;;;;4913838;29;20513;-75
2022/07/26 06:21:17;;;;;;;6.40;2.20;;;28.40;72.70;;;;;;4913484;29;20067;-74
2022/07/26 06:23:44;;;;;;;2.38;1.92;;;28.40;72.60;;;;;;4913684;29;20108;-75
2022/07/26 06:26:17;;;;;;;11.07;2.05;;;28.30;70.20;;;;;;4913706;29;20147;-75
2022/07/26 06:28:49;;;;;;;8.00;1.90;;;28.30;70.30;;;;;;4913992;29;20062;-75
2022/07/26 06:31:18;;;;;;;7.05;1.92;;;28.30;68.40;;;;;;4896530;29;20060;-76
2022/07/26 06:33:45;;;;;;;5.65;1.88;;;28.10;67.90;;;;;;4913583;29;20147;-75
2022/07/26 06:36:12;;;;;;;5.22;2.22;;;27.80;66.40;;;;;;4913835;29;20056;-74
2022/07/26 06:38:40;;;;;;;8.82;1.85;;;27.30;67.90;;;;;;4913587;29;20056;-74
2022/07/26 06:41:08;;;;;;;5.47;2.00;;;26.90;69.60;;;;;;4888241;29;20083;-74
2022/07/26 06:43:35;;;;;;;5.78;2.17;;;26.50;70.80;;;;;;4876672;29;20068;-73
2022/07/26 06:46:05;;;;;;;11.25;2.58;;;26.20;73.10;;;;;;4875951;29;20061;-75
2022/07/26 06:48:32;;;;;;;8.88;1.80;;;26.40;74.10;;;;;;4876478;29;20224;-74
2022/07/26 06:51:00;;;;;;;9.32;1.75;;;27.30;72.10;;;;;;4875876;29;20484;-75
2022/07/26 06:53:27;;;;;;;12.90;2.20;;;28.20;73.10;;;;;;4889827;29;20072;-74
2022/07/26 06:55:54;;;;;;;4.07;2.42;;;29.20;68.30;;;;;;4874504;29;20465;-74
2022/07/26 06:58:22;;;;;;;9.45;2.50;;;29.70;64.80;;;;;;4875710;29;20577;-74
2022/07/26 07:00:49;;;;;;;9.68;2.47;;;29.60;64.90;;;;;;4875910;29;20233;-74
2022/07/26 07:03:18;;;;;;;5.90;2.20;;;29.20;65.40;;;;;;4875849;29;20045;-74
2022/07/26 07:05:46;;;;;;;7.32;2.28;;;28.90;66.10;;;;;;4858593;29;20367;-74
2022/07/26 07:08:14;;;;;;;8.77;2.20;;;28.60;66.20;;;;;;4875924;29;20056;-76
2022/07/26 07:10:41;;;;;;;3.03;1.90;;;28.60;67.20;;;;;;4875604;29;20541;-75
2022/07/26 07:13:09;;;;;;;11.68;2.60;;;29.20;65.60;;;;;;4875158;29;20088;-76
2022/07/26 07:15:36;;;;;;;7.78;2.50;;;30.10;66.10;;;;;;4875444;29;20435;-77
2022/07/26 07:18:04;;;;;;;4.65;2.22;;;30.60;64.30;;;;;;4875382;29;20067;-74
2022/07/26 07:20:33;;;;;;;8.77;2.45;;;31.20;61.90;;;;;;4876039;29;20207;-75
2022/07/26 07:23:00;;;;;;;6.95;2.45;;;31.70;59.70;;;;;;4893518;29;20084;-75
2022/07/26 07:25:28;;;;;;;11.48;2.65;;;32.00;59.10;;;;;;4894047;29;20142;-76
2022/07/26 07:27:55;;;;;;;6.07;2.65;;;32.10;59.20;;;;;;4892388;29;20513;-75
2022/07/26 07:30:23;;;;;;;6.10;2.38;;;32.20;60.20;;;;;;4883949;29;20052;-76
2022/07/26 07:32:50;;;;;;;12.52;2.53;;;32.10;58.50;;;;;;4896959;29;20511;-76
2022/07/26 07:35:18;;;;;;;8.32;2.60;;;32.10;58.80;;;;;;4877494;29;20577;-76
2022/07/26 07:37:47;;;;;;;5.65;2.53;;;32.50;59.80;;;;;;4895472;29;20080;-76
2022/07/26 07:40:15;;;;;;;16.13;9.82;;;33.00;57.50;;;;;;4912818;29;20090;-76
2022/07/26 07:42:42;;;;;;;5.03;2.50;;;33.10;57.40;;;;;;4912869;29;20047;-76
2022/07/26 07:45:10;;;;;;;7.05;2.85;;;32.90;57.60;;;;;;4912327;29;20059;-76
2022/07/26 07:47:38;;;;;;;6.20;2.38;;;33.20;57.80;;;;;;4912632;29;20112;-76
2022/07/26 07:50:06;;;;;;;8.95;2.10;;;33.60;57.00;;;;;;4871641;29;20053;-76
2022/07/26 07:52:34;;;;;;;6.07;2.30;;;34.00;56.30;;;;;;4890257;29;20056;-76
2022/07/26 07:55:03;;;;;;;3.70;1.80;;;34.30;55.70;;;;;;4894162;29;20096;-76
2022/07/26 07:57:31;;;;;;;7.78;2.50;;;34.60;53.80;;;;;;4890232;29;20044;-76
2022/07/26 07:59:58;;;;;;;7.00;2.28;;;34.50;53.50;;;;;;4892512;29;20056;-76
2022/07/26 08:02:26;;;;;;;3.95;1.80;;;34.20;53.50;;;;;;4876993;29;20450;-76
2022/07/26 08:04:54;;;;;;;4.32;1.88;;;34.30;53.20;;;;;;4894147;29;20136;-75
2022/07/26 08:07:22;;;;;;;6.28;1.95;;;34.40;52.30;;;;;;4893732;29;20055;-75
2022/07/26 08:09:49;;;;;;;3.75;1.65;;;34.20;52.90;;;;;;4875608;29;20052;-75
2022/07/26 08:12:18;;;;;;;4.82;2.28;;;34.60;52.60;;;;;;4907904;29;20070;-75
2022/07/26 08:14:46;;;;;;;5.20;1.90;;;35.20;51.80;;;;;;4910971;29;20056;-75
2022/07/26 08:17:13;;;;;;;5.72;1.90;;;35.30;51.90;;;;;;4910959;29;20138;-75
2022/07/26 08:19:41;;;;;;;5.07;2.00;;;35.80;51.60;;;;;;4910768;29;20080;-76
2022/07/26 08:22:08;;;;;;;2.47;1.83;;;35.70;51.00;;;;;;4911366;29;20066;-75
2022/07/26 08:24:35;;;;;;;2.60;2.03;;;35.60;50.70;;;;;;4911153;29;20413;-75
2022/07/26 08:27:03;;;;;;;3.45;1.98;;;35.40;51.70;;;;;;4911010;29;20054;-75
2022/07/26 08:29:32;;;;;;;2.88;1.83;;;35.20;51.60;;;;;;4910878;29;20059;-75
2022/07/26 08:31:59;;;;;;;7.20;1.88;;;35.40;51.80;;;;;;4893947;29;20044;-76
2022/07/26 08:34:26;;;;;;;2.70;2.10;;;36.00;50.50;;;;;;4913352;29;20048;-75
2022/07/26 08:36:54;;;;;;;6.85;2.25;;;36.50;50.30;;;;;;4915444;29;20060;-77
2022/07/26 08:39:22;;;;;;;5.95;2.03;;;36.60;49.80;;;;;;4898968;29;20493;-76
2022/07/26 08:41:49;;;;;;;5.00;2.50;;;36.70;49.20;;;;;;4890543;29;20155;-76
2022/07/26 08:44:16;;;;;;;4.85;2.33;;;36.60;51.50;;;;;;4892383;29;20045;-77
2022/07/26 08:46:45;;;;;;;2.88;1.80;;;36.90;50.60;;;;;;4894991;29;20060;-76
2022/07/26 08:49:14;;;;;;;6.30;2.03;;;37.20;50.10;;;;;;4892043;29;20462;-77
2022/07/26 08:51:42;;;;;;;5.60;1.85;;;37.20;48.50;;;;;;4889480;29;20060;-76
2022/07/26 08:54:11;;;;;;;5.65;2.10;;;36.90;49.10;;;;;;4891040;29;20112;-76
2022/07/26 08:56:42;;;;;;;4.68;2.35;;;37.20;50.20;;;;;;4890406;29;20144;-76
2022/07/26 08:59:14;;;;;;;5.05;2.03;;;37.50;48.60;;;;;;4890990;29;20068;-74
2022/07/26 09:01:55;;;;;;;3.30;2.00;;;37.50;48.00;;;;;;4890722;29;20127;-75
2022/07/26 09:04:24;;;;;;;2.60;1.90;;;37.60;46.80;;;;;;4891331;29;20056;-75
2022/07/26 09:07:00;;;;;;;3.50;1.92;;;37.70;47.30;;;;;;4889852;29;20060;-71
2022/07/26 09:09:28;;;;;;;1.92;1.80;;;38.30;46.20;;;;;;4891904;29;20076;-72
2022/07/26 09:11:55;;;;;;;2.50;2.17;;;38.40;46.20;;;;;;4890609;29;20088;-72
2022/07/26 09:14:34;;;;;;;3.67;1.85;;;38.30;46.50;;;;;;4891554;29;20100;-72
2022/07/26 09:17:04;;;;;;;4.72;1.83;;;38.30;47.20;;;;;;4890157;29;20109;-71
2022/07/26 09:19:33;;;;;;;4.85;1.63;;;38.80;45.80;;;;;;4896261;29;20147;-72
2022/07/26 09:22:08;;;;;;;3.25;1.73;;;39.30;45.00;;;;;;4910062;29;20044;-71
2022/07/26 09:24:37;;;;;;;2.30;1.83;;;39.60;45.20;;;;;;4908631;29;20044;-70
2022/07/26 09:27:07;;;;;;;4.47;1.92;;;39.60;44.10;;;;;;4884298;29;20206;-71
2022/07/26 09:29:47;;;;;;;2.58;2.05;;;39.50;44.90;;;;;;4894778;29;20259;-71
2022/07/26 09:32:19;;;;;;;5.70;3.35;;;39.70;43.50;;;;;;4892077;29;20576;-70
2022/07/26 09:34:48;;;;;;;2.83;2.30;;;39.60;43.40;;;;;;4892926;29;20060;-73
2022/07/26 09:37:16;;;;;;;1.50;1.40;;;39.50;43.20;;;;;;4891300;29;20382;-71
2022/07/26 09:39:54;;;;;;;1.45;1.35;;;39.30;43.30;;;;;;4891780;29;20075;-73
2022/07/26 09:42:23;;;;;;;3.33;1.48;;;39.20;43.40;;;;;;4892908;29;20048;-71
2022/07/26 09:44:51;;;;;;;3.40;2.03;;;39.00;43.40;;;;;;4891325;29;20060;-71
2022/07/26 09:47:20;;;;;;;2.80;1.60;;;39.00;43.60;;;;;;4888894;29;20470;-71
2022/07/26 09:49:48;;;;;;;3.78;1.70;;;38.60;43.80;;;;;;4891554;29;20112;-71
2022/07/26 09:52:19;;;;;;;2.13;1.35;;;38.00;44.90;;;;;;4892428;29;20135;-71
2022/07/26 09:54:48;;;;;;;3.70;1.77;;;37.30;46.00;;;;;;4892212;29;20137;-69
2022/07/26 09:57:17;;;;;;;3.47;1.80;;;37.00;46.20;;;;;;4891272;29;20355;-70
2022/07/26 09:59:44;;;;;;;4.28;1.40;;;37.10;46.10;;;;;;4892184;29;20056;-71
2022/07/26 10:02:13;;;;;;;5.22;1.90;;;37.50;45.60;;;;;;4892511;29;20052;-71
2022/07/26 10:04:41;;;;;;;3.60;1.88;;;37.80;45.40;;;;;;4891173;29;20096;-72
2022/07/26 10:07:09;;;;;;;4.25;1.85;;;38.30;44.20;;;;;;4889124;29;20045;-71
2022/07/26 10:09:43;;;;;;;6.38;1.50;;;38.40;44.20;;;;;;4890827;29;20058;-72
2022/07/26 10:12:14;;;;;;;3.67;2.00;;;38.40;44.20;;;;;;4891766;29;20068;-72
2022/07/26 10:14:44;;;;;;;3.70;1.67;;;38.20;44.40;;;;;;4890686;29;20556;-71
2022/07/26 10:17:44;;;;;;;6.22;1.65;;;37.90;44.50;;;;;;4892004;29;20108;-72
2022/07/26 10:20:44;;;;;;;3.00;1.60;;;37.50;44.90;;;;;;4892512;29;20139;-72
2022/07/26 10:23:37;;;;;;;2.47;1.70;;;37.60;44.50;;;;;;4892245;29;20060;-72
2022/07/26 10:26:06;;;;;;;1.33;1.25;;;37.70;44.70;;;;;;4892128;29;20060;-71
2022/07/26 10:28:35;;;;;;;4.63;1.70;;;37.90;44.30;;;;;;4891265;29;20076;-71
2022/07/26 10:31:31;;;;;;;2.22;1.38;;;38.50;44.60;;;;;;4889321;29;20159;-71
2022/07/26 10:34:02;;;;;;;3.95;1.58;;;39.30;43.60;;;;;;4887853;29;20068;-71
2022/07/26 10:36:34;;;;;;;1.90;1.80;;;39.70;42.40;;;;;;4891182;29;20104;-71
2022/07/26 10:39:10;;;;;;;4.47;1.58;;;39.70;42.70;;;;;;4891452;29;20490;-71
2022/07/26 10:41:39;;;;;;;3.70;1.88;;;40.10;42.20;;;;;;4890118;29;20071;-72
2022/07/26 10:44:14;;;;;;;3.40;1.60;;;40.00;41.80;;;;;;4886104;29;20120;-72
2022/07/26 10:47:17;;;;;;;5.50;1.65;;;39.80;42.30;;;;;;4873877;29;20148;-71
2022/07/26 10:49:54;;;;;;;2.15;1.73;;;39.70;42.10;;;;;;4873758;29;20395;-71
2022/07/26 10:52:26;;;;;;;3.50;1.65;;;39.50;42.40;;;;;;4891799;29;20067;-71
2022/07/26 10:55:15;;;;;;;2.47;1.80;;;39.50;43.10;;;;;;4890484;29;20048;-71
2022/07/26 10:57:48;;;;;;;4.55;1.50;;;39.40;42.30;;;;;;4888100;29;20060;-70
2022/07/26 11:00:21;;;;;;;1.70;1.60;;;39.60;43.00;;;;;;4886371;29;20075;-71
2022/07/26 11:02:52;;;;;;;2.17;1.40;;;40.10;41.40;;;;;;4888854;29;20056;-70
2022/07/26 11:05:21;;;;;;;1.40;1.30;;;40.10;40.50;;;;;;4889094;29;20075;-71
2022/07/26 11:08:00;;;;;;;3.08;1.45;;;40.20;40.50;;;;;;4890396;29;20055;-71
2022/07/26 11:10:30;;;;;;;2.72;1.80;;;39.90;40.60;;;;;;4898453;29;20235;-71
2022/07/26 11:13:13;;;;;;;4.95;1.88;;;39.70;41.20;;;;;;4891432;29;20060;-71
2022/07/26 11:15:42;;;;;;;1.98;1.83;;;39.20;41.60;;;;;;4894799;29;20523;-69
2022/07/26 11:18:15;;;;;;;4.10;2.33;;;39.20;42.30;;;;;;4888401;29;20064;-73
2022/07/26 11:20:44;;;;;;;7.00;2.35;;;39.60;42.80;;;;;;4888714;29;20164;-72
2022/07/26 11:23:29;;;;;;;4.72;2.28;;;39.90;41.80;;;;;;4890794;29;20572;-71
2022/07/26 11:26:15;;;;;;;7.50;2.47;;;40.50;41.30;;;;;;4890760;29;20057;-72
2022/07/26 11:28:55;;;;;;;5.30;2.30;;;41.00;41.00;;;;;;4890091;29;20537;-71
2022/07/26 11:31:26;;;;;;;4.95;2.00;;;41.30;39.90;;;;;;4890391;29;20052;-72
2022/07/26 11:33:53;;;;;;;2.95;1.80;;;41.60;40.20;;;;;;4891542;29;20048;-73
2022/07/26 11:36:33;;;;;;;3.83;1.67;;;41.90;39.70;;;;;;4888876;29;20067;-72
2022/07/26 11:39:02;;;;;;;1.75;1.50;;;41.90;39.10;;;;;;4887034;29;20459;-72
2022/07/26 11:41:32;;;;;;;1.67;1.58;;;41.70;39.60;;;;;;4886826;29;20056;-71
2022/07/26 11:43:59;;;;;;;2.08;1.77;;;41.30;40.40;;;;;;4885360;29;20041;-71
2022/07/26 11:46:35;;;;;;;2.55;1.60;;;41.10;40.40;;;;;;4898022;29;20044;-72
2022/07/26 11:49:05;;;;;;;2.10;1.85;;;40.30;41.00;;;;;;4890544;29;20402;-70
2022/07/26 11:51:33;;;;;;;4.38;1.83;;;40.50;40.80;;;;;;4888302;29;20049;-77
2022/07/26 11:54:03;;;;;;;2.55;1.95;;;40.70;41.00;;;;;;4908422;29;20541;-75
2022/07/26 11:56:31;;;;;;;2.78;2.50;;;40.90;40.80;;;;;;4909010;29;20056;-76
2022/07/26 11:58:59;;;;;;;2.60;1.80;;;41.30;40.70;;;;;;4907112;29;20052;-77
2022/07/26 12:01:27;;;;;;;5.65;2.13;;;41.50;40.70;;;;;;4908885;29;20039;-76
2022/07/26 12:03:56;;;;;;;5.28;2.08;;;41.50;40.90;;;;;;4891859;29;20152;-74
2022/07/26 12:06:27;;;;;;;3.35;2.33;;;42.00;40.10;;;;;;4890057;29;20060;-75
2022/07/26 12:08:56;;;;;;;3.22;1.80;;;41.70;40.60;;;;;;4891200;29;20052;-76
2022/07/26 12:11:36;;;;;;;3.65;2.00;;;41.80;40.00;;;;;;4893958;29;20154;-75
2022/07/26 12:14:04;;;;;;;3.97;2.17;;;41.70;41.40;;;;;;4892633;29;20052;-77
2022/07/26 12:16:40;;;;;;;2.35;2.15;;;40.70;40.50;;;;;;4893209;29;20056;-76
2022/07/26 12:19:09;;;;;;;4.47;2.25;;;40.60;41.20;;;;;;4890907;29;20056;-76
2022/07/26 12:21:42;;;;;;;2.22;2.03;;;39.90;41.70;;;;;;4888912;29;20067;-76
2022/07/26 12:24:11;;;;;;;2.33;2.13;;;38.90;42.30;;;;;;4873079;29;20060;-75
2022/07/26 12:26:40;;;;;;;3.85;2.28;;;38.60;43.40;;;;;;4893969;29;20045;-74
2022/07/26 12:29:25;;;;;;;4.72;2.30;;;39.30;42.10;;;;;;4892536;29;20084;-75
2022/07/26 12:32:04;;;;;;;2.60;1.95;;;40.20;41.60;;;;;;4876092;29;20533;-75
2022/07/26 12:34:34;;;;;;;3.85;2.08;;;40.80;40.00;;;;;;4894091;29;20115;-74
2022/07/26 12:37:10;;;;;;;2.70;2.08;;;40.70;40.30;;;;;;4887467;29;20348;-76
2022/07/26 12:39:37;;;;;;;3.20;1.90;;;40.90;40.20;;;;;;4880189;29;20060;-76
2022/07/26 12:42:23;;;;;;;2.97;1.90;;;41.10;39.50;;;;;;4892292;29;20075;-75
2022/07/26 12:44:51;;;;;;;1.60;1.50;;;41.20;40.30;;;;;;4892750;29;20438;-76
2022/07/26 12:47:18;;;;;;;2.22;2.03;;;41.30;39.80;;;;;;4876192;29;20054;-75
2022/07/26 12:49:46;;;;;;;3.22;1.83;;;41.20;40.10;;;;;;4892641;29;20049;-77
2022/07/26 12:52:17;;;;;;;3.10;1.80;;;41.70;39.90;;;;;;4892948;29;20096;-78
2022/07/26 12:54:46;;;;;;;1.98;1.80;;;42.20;39.20;;;;;;4893818;29;20052;-76
2022/07/26 12:57:14;;;;;;;3.13;1.60;;;42.50;38.90;;;;;;4894099;29;20056;-79